KBIL/BIL METAR and TAF weather

Enter ICAO airport designator
Station Type Date Time Source
KBIL METAR 2020/07/04 01:22 UTC NOAA

KBIL 040122Z 36004KT 10SM FEW050 SCT080 BKN150 27/08 A3002 RMK AO2 TSE21 VIRGA CB DSNT ALQDS T02670083


Station Type Date Time Source
KBIL Decoded METAR 2020/07/04 01:22 UTC NOAA

LOGAN INTERNATIONAL AIRPORT, MT, United States (KBIL) 45-49N 108-33W 1091M
Jul 03, 2020 - 09:22 PM EDT / 2020.07.04 0122 UTC
Wind: from the N (360 degrees) at 5 MPH (4 KT):0
Visibility: 10 mile(s):0
Sky conditions: mostly cloudy
Weather: Cumulonimbus clouds observed
Temperature: 80.1 F (26.7 C)
Dew Point: 46.9 F (8.3 C)
Relative Humidity: 31%
Pressure (altimeter): 30.02 in. Hg (1016 hPa)
ob: KBIL 040122Z 36004KT 10SM FEW050 SCT080 BKN150 27/08 A3002 RMK AO2 TSE21 VIRGA CB DSNT ALQDS T02670083
cycle: 1

Station Type Date Time Source
KBIL TAF 2020/07/03 20:18 UTC NOAA

TAF
AMD KBIL 032017Z 0320/0418 10007KT P6SM VCTS SCT050CB SCT200
TEMPO 0320/0323 27020G35KT 5SM TSRA BKN050CB OVC150
FM040300 23007KT P6SM BKN070
FM040900 23006KT P6SM SCT100

Example: see airport list